Погода Эпупана 2 недели

Карас, Намибия

18 - 31 июля
  • 18июля
    Сегодня
    +9°
    +29°
    Ясно и безоблачно
    ВремяПогодаТемператураВлажностьДавлениеВетер, м/сВероятность осадков
    02:00Ясно и безоблачно+11°C60 %677 мм1.5 м/с1 %
    05:00Ясно и безоблачно+10°C68 %676 мм1.3 м/с1 %
    08:00Ясно и безоблачно+7°C87 %677 мм2.4 м/с1 %
    11:00Ясно и безоблачно+22°C27 %681 мм2.1 м/с1 %
    14:00Ясно и безоблачно+28°C15 %680 мм2.7 м/с1 %
    17:00Ясно и безоблачно+28°C15 %680 мм4.4 м/с1 %
    20:00Ясно и безоблачно+19°C25 %679 мм3.5 м/с1 %
    23:00Ясно и безоблачно+15°C42 %678 мм1.3 м/с1 %
  • 19июля
    Пятница
    +9°
    +29°
    Ясно и безоблачно
    ВремяПогодаТемператураВлажностьДавлениеВетер, м/сВероятность осадков
    02:00Ясно и безоблачно+12°C48 %677 мм1.9 м/с1 %
    05:00Ясно и безоблачно+11°C48 %676 мм2.2 м/с1 %
    08:00Ясно и безоблачно+9°C49 %676 мм2.8 м/с1 %
    11:00Ясно и безоблачно+22°C26 %680 мм1.4 м/с1 %
    14:00Ясно и безоблачно+28°C13 %679 мм2.6 м/с1 %
    17:00Ясно и безоблачно+28°C11 %678 мм4.0 м/с1 %
    20:00Ясно и безоблачно+19°C23 %678 мм3.4 м/с1 %
    23:00Ясно и безоблачно+14°C34 %678 мм2.6 м/с1 %
  • 20июля
    Суббота
    +8°
    +28°
    Ясно и безоблачно
    ВремяПогодаТемператураВлажностьДавлениеВетер, м/сВероятность осадков
    02:00Ясно и безоблачно+12°C42 %677 мм0.9 м/с1 %
    05:00Ясно и безоблачно+12°C41 %676 мм0.9 м/с1 %
    08:00Ясно и безоблачно+9°C46 %677 мм1.3 м/с1 %
    11:00Ясно и безоблачно+22°C17 %680 мм1.1 м/с1 %
    14:00Ясно и безоблачно+27°C11 %679 мм2.8 м/с1 %
    17:00Ясно и безоблачно+28°C8 %678 мм3.2 м/с1 %
    20:00Ясно и безоблачно+19°C15 %677 мм3.5 м/с1 %
    23:00Ясно и безоблачно+14°C37 %676 мм1.1 м/с1 %
  • 21июля
    Воскресенье
    +8°
    +31°
    Ясно и безоблачно
    ВремяПогодаТемператураВлажностьДавлениеВетер, м/сВероятность осадков
    02:00Ясно и безоблачно+13°C40 %676 мм1.1 м/с1 %
    05:00Ясно и безоблачно+10°C44 %674 мм2.6 м/с1 %
    08:00Ясно и безоблачно+8°C30 %674 мм3.4 м/с1 %
    11:00Ясно и безоблачно+24°C13 %679 мм0.8 м/с1 %
    14:00Ясно и безоблачно+30°C9 %678 мм2.5 м/с1 %
    17:00Ясно и безоблачно+30°C10 %678 мм3.9 м/с1 %
    20:00Ясно и безоблачно+20°C19 %677 мм3.3 м/с1 %
    23:00Ясно и безоблачно+16°C28 %677 мм1.4 м/с1 %
  • 22июля
    Понедельник
    +7°
    +33°
    Ясно и безоблачно
    ВремяПогодаТемператураВлажностьДавлениеВетер, м/сВероятность осадков
    02:00Ясно и безоблачно+13°C28 %676 мм2.8 м/с1 %
    05:00Ясно и безоблачно+12°C28 %675 мм3.5 м/с1 %
    08:00Ясно и безоблачно+9°C33 %675 мм3.8 м/с1 %
    11:00Ясно и безоблачно+26°C13 %680 мм1.4 м/с1 %
    14:00Ясно и безоблачно+31°C5 %680 мм2.0 м/с1 %
    17:00Ясно и безоблачно+32°C3 %680 мм4.5 м/с1 %
    20:00Ясно и безоблачно+21°C21 %678 мм3.4 м/с1 %
    23:00Ясно и безоблачно+17°C39 %679 мм0.4 м/с1 %
Мы используем cookies
Соглашаюсь